Time;durP1;ratioP1;P1;durP2;ratioP2;P2;SDS_P1;SDS_P2;PMS_P1;PMS_P2;Temp;Humidity;BMP_temperature;BMP_pressure;BME280_temperature;BME280_humidity;BME280_pressure;Samples;Min_cycle;Max_cycle;Signal;HPM_P1;HPM_P2
2021/06/10 00:00:48;;;;;;;;;12.50;11.75;;;;;23.69;52.91;101884.69;4974534;28;45604;-79
2021/06/10 00:03:14;;;;;;;;;12.50;11.75;;;;;23.71;53.46;101884.59;4974329;28;45509;-80
2021/06/10 00:05:40;;;;;;;;;11.50;9.75;;;;;23.70;53.21;101890.94;4974348;28;45351;-80
2021/06/10 00:08:07;;;;;;;;;11.00;11.00;;;;;23.60;53.16;101869.31;4974446;28;45778;-79
2021/06/10 00:10:33;;;;;;;;;13.25;12.00;;;;;23.66;52.68;101881.41;4975803;28;45465;-79
2021/06/10 00:12:59;;;;;;;;;16.50;11.75;;;;;23.66;53.23;101882.25;4974564;28;45531;-79
2021/06/10 00:15:28;;;;;;;;;14.00;13.50;;;;;23.63;52.82;101881.66;4975056;28;45554;-78
2021/06/10 00:17:53;;;;;;;;;11.25;10.25;;;;;23.63;53.41;101882.50;4973345;28;45660;-79
2021/06/10 00:20:21;;;;;;;;;14.00;11.50;;;;;23.61;52.91;101872.84;4973547;28;47173;-80
2021/06/10 00:22:47;;;;;;;;;12.00;11.75;;;;;23.60;53.42;101873.84;4975841;28;45398;-79
2021/06/10 00:25:13;;;;;;;;;11.25;9.25;;;;;23.59;53.54;101878.31;4974181;28;45372;-79
2021/06/10 00:27:39;;;;;;;;;11.75;11.00;;;;;23.59;52.98;101875.63;4974373;28;45459;-79
2021/06/10 00:30:06;;;;;;;;;13.00;11.00;;;;;23.56;53.73;101873.22;4974047;28;45787;-78
2021/06/10 00:32:32;;;;;;;;;12.25;12.25;;;;;23.57;53.31;101876.75;4974064;28;46362;-79
2021/06/10 00:34:57;;;;;;;;;11.75;10.00;;;;;23.55;53.76;101878.72;4974541;28;45253;-79
2021/06/10 00:37:23;;;;;;;;;13.00;11.25;;;;;23.53;54.39;101878.81;4975193;28;46528;-79
2021/06/10 00:39:48;;;;;;;;;13.50;12.25;;;;;23.52;54.52;101878.94;4973747;28;45565;-79
2021/06/10 00:42:13;;;;;;;;;16.00;11.00;;;;;23.50;54.71;101880.91;4972923;28;45504;-79
2021/06/10 00:44:39;;;;;;;;;11.50;11.25;;;;;23.48;54.78;101885.53;4974197;28;45589;-79
2021/06/10 00:47:04;;;;;;;;;12.25;11.50;;;;;23.45;55.16;101875.91;4974071;28;46459;-79
2021/06/10 00:49:30;;;;;;;;;11.00;11.00;;;;;23.43;55.03;101883.19;4974862;28;45523;-79
2021/06/10 00:51:56;;;;;;;;;11.25;11.00;;;;;23.39;55.38;101871.03;4974148;28;45558;-79
2021/06/10 00:54:22;;;;;;;;;10.25;10.25;;;;;23.36;55.55;101888.19;4973693;28;45534;-79
2021/06/10 00:56:49;;;;;;;;;12.50;12.00;;;;;23.36;55.92;101882.84;4974067;28;46124;-79
2021/06/10 00:59:14;;;;;;;;;10.75;10.75;;;;;23.36;56.05;101884.66;4965432;28;45430;-79
2021/06/10 01:01:40;;;;;;;;;12.00;11.75;;;;;23.33;56.17;101880.38;4975437;28;45604;-79
2021/06/10 01:04:05;;;;;;;;;12.50;12.00;;;;;23.34;56.30;101882.13;4973426;28;45475;-79
2021/06/10 01:06:39;;;;;;;;;11.00;9.25;;;;;23.35;56.07;101880.28;4973710;28;45617;-79
2021/06/10 01:09:18;;;;;;;;;10.50;10.50;;;;;23.35;56.46;101882.97;4972828;28;45442;-79
2021/06/10 01:12:06;;;;;;;;;11.50;11.50;;;;;23.39;56.26;101876.38;4973486;28;45409;-78
2021/06/10 01:14:38;;;;;;;;;10.50;10.00;;;;;23.39;56.85;101881.75;4973337;28;45645;-79
2021/06/10 01:17:05;;;;;;;;;12.50;9.75;;;;;23.40;57.01;101878.09;4972864;28;45502;-79
2021/06/10 01:19:39;;;;;;;;;11.25;10.25;;;;;23.40;56.80;101878.94;4975324;28;45798;-78
2021/06/10 01:22:12;;;;;;;;;10.25;9.25;;;;;23.39;57.31;101879.91;4973529;28;45396;-79
2021/06/10 01:25:15;;;;;;;;;11.50;11.50;;;;;23.37;56.86;101884.53;4972480;28;45450;-79
2021/06/10 01:27:47;;;;;;;;;11.25;10.50;;;;;23.35;57.43;101874.91;4972255;28;45811;-79
2021/06/10 01:30:18;;;;;;;;;9.25;9.25;;;;;23.35;57.63;101874.91;4973307;28;45688;-74
2021/06/10 01:32:49;;;;;;;;;10.50;9.75;;;;;23.33;57.12;101874.16;4972936;28;45521;-77
2021/06/10 01:35:16;;;;;;;;;13.00;11.00;;;;;23.29;57.26;101873.56;4973212;28;45526;-79
2021/06/10 01:37:43;;;;;;;;;10.25;10.25;;;;;23.28;57.44;101866.47;4974821;28;45622;-79
2021/06/10 01:40:09;;;;;;;;;10.50;10.00;;;;;23.26;56.83;101867.59;4972476;28;45885;-79
2021/06/10 01:42:38;;;;;;;;;11.25;10.00;;;;;23.22;56.74;101861.59;4972949;28;45523;-79
2021/06/10 01:45:04;;;;;;;;;16.00;12.00;;;;;23.22;56.86;101866.97;4973376;28;45248;-79
2021/06/10 01:47:30;;;;;;;;;11.75;10.25;;;;;23.18;56.68;101874.41;4972885;28;46295;-79
2021/06/10 01:49:57;;;;;;;;;12.25;12.25;;;;;23.14;56.73;101864.03;4974047;28;45377;-77
2021/06/10 01:52:24;;;;;;;;;10.75;10.75;;;;;23.11;56.97;101862.44;4974027;28;45537;-77
2021/06/10 01:54:51;;;;;;;;;8.75;8.75;;;;;23.07;57.27;101860.97;4973072;28;45313;-80
2021/06/10 01:57:17;;;;;;;;;13.25;11.25;;;;;23.03;57.04;101862.19;4971883;28;46303;-78
2021/06/10 01:59:43;;;;;;;;;9.50;9.50;;;;;23.04;57.56;101865.72;4973389;28;45885;-79
2021/06/10 02:02:09;;;;;;;;;11.00;9.25;;;;;23.02;57.08;101864.97;4972541;28;45531;-78
2021/06/10 02:04:35;;;;;;;;;15.75;11.50;;;;;23.03;57.19;101870.25;4973461;28;45507;-78
2021/06/10 02:07:01;;;;;;;;;16.50;13.75;;;;;23.00;56.83;101864.25;4972899;28;46311;-78
2021/06/10 02:09:28;;;;;;;;;12.75;10.00;;;;;22.99;57.28;101859.88;4973866;28;45739;-78
2021/06/10 02:11:54;;;;;;;;;10.50;10.50;;;;;23.00;57.16;101865.09;4975861;28;45525;-79
2021/06/10 02:14:21;;;;;;;;;12.50;12.00;;;;;22.98;57.44;101860.84;4976161;28;45328;-78
2021/06/10 02:16:47;;;;;;;;;10.00;9.00;;;;;22.98;57.14;101855.50;4977152;28;45397;-77
2021/06/10 02:19:15;;;;;;;;;10.50;10.00;;;;;22.95;57.57;101853.03;4975071;28;45703;-79
2021/06/10 02:21:41;;;;;;;;;11.50;10.25;;;;;22.85;57.15;101836.78;4976339;28;45422;-79
2021/06/10 02:24:06;;;;;;;;;14.50;11.00;;;;;22.82;57.62;101840.56;4975805;28;45857;-79
2021/06/10 02:26:32;;;;;;;;;12.25;11.25;;;;;22.84;58.13;101848.47;4976298;28;45851;-80
2021/06/10 02:28:57;;;;;;;;;13.00;11.75;;;;;22.80;57.81;101845.16;4976481;28;45632;-79
2021/06/10 02:31:22;;;;;;;;;11.50;11.50;;;;;22.80;58.22;101857.72;4977227;28;45313;-79
2021/06/10 02:33:48;;;;;;;;;11.25;10.25;;;;;22.79;57.59;101853.34;4990744;28;45512;-79
2021/06/10 02:36:16;;;;;;;;;10.00;8.75;;;;;22.78;58.22;101857.84;4975298;28;45574;-79
2021/06/10 02:38:55;;;;;;;;;12.50;11.75;;;;;22.77;58.44;101860.66;4976616;28;45523;-80
2021/06/10 02:41:25;;;;;;;;;14.50;11.75;;;;;22.76;58.02;101856.25;4968536;28;45302;-79
2021/06/10 02:43:51;;;;;;;;;11.75;11.00;;;;;22.76;57.85;101856.25;4977390;28;45399;-79
2021/06/10 02:46:17;;;;;;;;;16.00;10.75;;;;;22.75;57.70;101858.06;4975895;28;46651;-79
2021/06/10 02:48:43;;;;;;;;;11.00;8.75;;;;;22.71;58.10;101853.94;4975998;28;45787;-79
2021/06/10 02:51:10;;;;;;;;;9.75;9.00;;;;;22.71;58.36;101855.72;4975779;28;45578;-79
2021/06/10 02:53:38;;;;;;;;;13.75;10.00;;;;;22.69;58.18;101844.28;4975851;28;45445;-79
2021/06/10 02:56:07;;;;;;;;;16.00;12.25;;;;;22.63;58.36;101849.16;4974905;28;45506;-79
2021/06/10 02:58:34;;;;;;;;;13.00;12.00;;;;;22.63;58.32;101843.78;4976460;28;45651;-80
2021/06/10 03:01:04;;;;;;;;;12.25;11.75;;;;;22.62;57.69;101852.81;4975009;28;45725;-79
2021/06/10 03:03:30;;;;;;;;;12.50;10.00;;;;;22.55;58.13;101853.38;4974551;28;45466;-79
2021/06/10 03:05:57;;;;;;;;;9.50;9.25;;;;;22.57;58.07;101857.66;4975339;28;45704;-79
2021/06/10 03:08:24;;;;;;;;;13.25;11.00;;;;;22.55;57.56;101858.72;4975740;28;45717;-77
2021/06/10 03:10:50;;;;;;;;;13.25;10.00;;;;;22.50;57.38;101853.75;4978767;28;45494;-79
2021/06/10 03:13:17;;;;;;;;;9.25;8.25;;;;;22.47;58.13;101858.47;4976232;28;45470;-79
2021/06/10 03:15:44;;;;;;;;;9.75;9.50;;;;;22.46;57.95;101857.63;4976323;28;47272;-79
2021/06/10 03:18:11;;;;;;;;;12.50;8.75;;;;;22.41;57.84;101851.75;4975110;28;45718;-80
2021/06/10 03:20:37;;;;;;;;;11.00;9.75;;;;;22.37;57.68;101850.25;4974518;28;47625;-79
2021/06/10 03:23:03;;;;;;;;;10.50;10.50;;;;;22.34;57.28;101854.03;4975663;28;45419;-79
2021/06/10 03:25:29;;;;;;;;;12.00;10.75;;;;;22.33;57.90;101854.13;4975325;28;45558;-79
2021/06/10 03:27:54;;;;;;;;;13.00;11.50;;;;;22.32;58.11;101847.06;4974747;28;45658;-79
2021/06/10 03:30:20;;;;;;;;;11.75;11.00;;;;;22.28;58.15;101845.59;4973488;28;45496;-80
2021/06/10 03:32:46;;;;;;;;;10.75;9.75;;;;;22.25;57.55;101845.84;4975023;28;45524;-80
2021/06/10 03:35:12;;;;;;;;;11.25;10.00;;;;;22.19;58.06;101840.94;4974686;28;45460;-80
2021/06/10 03:37:40;;;;;;;;;9.00;9.00;;;;;22.22;58.11;101848.72;4975666;28;45906;-79
2021/06/10 03:40:08;;;;;;;;;13.25;12.00;;;;;22.21;58.12;101847.88;4974799;28;45576;-79
2021/06/10 03:42:35;;;;;;;;;10.00;10.00;;;;;22.19;58.43;101846.31;4974684;28;45468;-80
2021/06/10 03:45:02;;;;;;;;;12.75;11.00;;;;;22.09;57.89;101838.06;4974175;28;46436;-79
2021/06/10 03:47:28;;;;;;;;;10.50;10.00;;;;;22.02;58.43;101828.75;4974777;28;45569;-79
2021/06/10 03:49:54;;;;;;;;;11.50;9.00;;;;;21.96;58.21;101840.78;4976343;28;45448;-79
2021/06/10 03:52:24;;;;;;;;;10.75;10.00;;;;;21.89;58.42;101829.66;4975377;28;45465;-79
2021/06/10 03:54:50;;;;;;;;;12.00;10.25;;;;;21.85;58.36;101840.69;4974163;28;47474;-79
2021/06/10 03:57:15;;;;;;;;;11.00;9.00;;;;;21.80;58.55;101840.19;4973448;28;45502;-79
2021/06/10 03:59:40;;;;;;;;;11.00;11.00;;;;;21.78;58.25;101832.28;4973664;28;45741;-79
2021/06/10 04:02:06;;;;;;;;;12.25;11.50;;;;;21.77;58.98;101827.91;4975596;28;45408;-79
2021/06/10 04:04:31;;;;;;;;;10.00;9.25;;;;;21.77;58.19;101835.94;4976355;28;46110;-79
2021/06/10 04:06:57;;;;;;;;;10.00;10.00;;;;;21.78;58.50;101834.94;4974596;28;45501;-79
2021/06/10 04:09:23;;;;;;;;;10.25;10.25;;;;;21.79;58.47;101835.81;4974606;28;45780;-79
2021/06/10 04:11:48;;;;;;;;;9.25;9.00;;;;;21.78;58.24;101842.13;4973826;28;45620;-79
2021/06/10 04:14:14;;;;;;;;;9.00;7.25;;;;;21.79;58.33;101831.31;4974177;28;45463;-79
2021/06/10 04:16:39;;;;;;;;;9.25;9.25;;;;;21.81;58.28;101840.06;4975791;28;45459;-79
2021/06/10 04:19:04;;;;;;;;;11.25;10.25;;;;;21.81;58.52;101836.53;4974340;28;45415;-78
2021/06/10 04:21:30;;;;;;;;;9.25;8.75;;;;;21.84;58.90;101844.34;4973898;28;45319;-79
2021/06/10 04:23:55;;;;;;;;;9.50;8.25;;;;;21.79;58.38;101833.97;4973989;28;45718;-79
2021/06/10 04:26:21;;;;;;;;;10.25;9.50;;;;;21.87;58.48;101844.09;4973222;28;45467;-77
2021/06/10 04:28:47;;;;;;;;;11.00;9.00;;;;;21.89;58.39;101844.88;4975994;28;45450;-79
2021/06/10 04:31:17;;;;;;;;;13.50;10.00;;;;;21.89;57.59;101847.56;4973028;28;45388;-79
2021/06/10 04:33:43;;;;;;;;;7.50;6.25;;;;;21.89;57.75;101843.03;4971885;28;46140;-79
2021/06/10 04:36:10;;;;;;;;;10.75;9.00;;;;;21.89;56.94;101858.25;4974070;28;45543;-79
2021/06/10 04:38:39;;;;;;;;;8.00;6.50;;;;;21.85;56.46;101846.91;4974517;28;45459;-80
2021/06/10 04:41:05;;;;;;;;;9.25;8.25;;;;;21.82;55.96;101859.66;4974428;28;45521;-79
2021/06/10 04:43:30;;;;;;;;;8.25;8.25;;;;;21.82;55.42;101856.97;4975500;28;45435;-79
2021/06/10 04:45:58;;;;;;;;;7.00;7.00;;;;;21.81;55.20;101855.25;4973864;28;45479;-80
2021/06/10 04:48:25;;;;;;;;;7.00;7.00;;;;;21.82;54.89;101865.00;4974080;28;45507;-79
2021/06/10 04:50:50;;;;;;;;;6.25;6.00;;;;;21.79;54.46;101859.88;4974169;28;45633;-79
2021/06/10 04:53:16;;;;;;;;;4.75;4.75;;;;;21.79;53.86;101859.88;4974556;28;47456;-80
2021/06/10 04:55:43;;;;;;;;;6.75;5.75;;;;;21.79;53.45;101862.56;4975291;28;45489;-79
2021/06/10 04:58:08;;;;;;;;;6.75;5.75;;;;;21.80;53.19;101858.91;4974124;28;45319;-79
2021/06/10 05:00:34;;;;;;;;;4.25;4.00;;;;;21.78;53.09;101861.72;4973717;28;45475;-79
2021/06/10 05:03:00;;;;;;;;;3.75;3.75;;;;;21.79;52.61;101862.56;4972829;28;46727;-79
2021/06/10 05:05:25;;;;;;;;;4.75;4.75;;;;;21.75;52.41;101867.28;4973614;28;45419;-78
2021/06/10 05:07:50;;;;;;;;;4.00;4.00;;;;;21.78;51.79;101871.56;4974027;28;45346;-79
2021/06/10 05:10:16;;;;;;;;;6.00;6.00;;;;;21.79;51.87;101867.91;4973530;28;45419;-79
2021/06/10 05:12:41;;;;;;;;;5.75;5.00;;;;;21.80;51.73;101859.75;4973517;28;45542;-79
2021/06/10 05:15:07;;;;;;;;;3.50;3.50;;;;;21.80;51.63;101862.44;4974051;28;45309;-81
2021/06/10 05:17:32;;;;;;;;;5.50;4.00;;;;;21.81;51.26;101863.28;4973537;28;45458;-79
2021/06/10 05:19:58;;;;;;;;;5.75;5.00;;;;;21.82;51.33;101865.88;4973799;28;45269;-79
2021/06/10 05:22:23;;;;;;;;;3.00;3.00;;;;;21.87;50.50;101877.09;4975025;28;45738;-78
2021/06/10 05:24:48;;;;;;;;;3.75;3.25;;;;;21.89;50.36;101869.81;4973014;28;45889;-79
2021/06/10 05:27:14;;;;;;;;;6.75;5.00;;;;;21.95;50.15;101865.84;4973647;28;45472;-79
2021/06/10 05:29:39;;;;;;;;;5.50;4.00;;;;;22.05;49.75;101863.34;4973308;28;45403;-79
2021/06/10 05:32:06;;;;;;;;;4.75;4.00;;;;;22.10;49.39;101858.50;4972492;28;47146;-79
2021/06/10 05:34:32;;;;;;;;;4.00;4.00;;;;;22.17;49.36;101865.13;4973423;28;45367;-80
2021/06/10 05:36:57;;;;;;;;;3.50;3.50;;;;;22.25;48.57;101869.94;4973549;28;45567;-81
2021/06/10 05:39:23;;;;;;;;;7.00;4.00;;;;;22.31;49.01;101856.94;4974902;28;45392;-79
2021/06/10 05:41:48;;;;;;;;;5.00;5.00;;;;;22.43;48.45;101862.34;4977500;28;46495;-77
2021/06/10 05:44:13;;;;;;;;;5.75;5.50;;;;;22.40;48.22;101858.09;4986183;28;45575;-77
2021/06/10 05:46:40;;;;;;;;;3.25;3.25;;;;;22.52;48.00;101867.00;4976680;28;48514;-78
2021/06/10 05:49:06;;;;;;;;;6.00;4.00;;;;;22.57;48.47;101868.38;4976494;28;45438;-76
2021/06/10 05:51:31;;;;;;;;;3.50;3.50;;;;;22.61;47.50;101869.00;4976255;28;46629;-78
2021/06/10 05:53:56;;;;;;;;;4.25;4.25;;;;;22.64;47.84;101866.94;4974035;28;45522;-79
2021/06/10 05:56:21;;;;;;;;;3.50;3.50;;;;;22.69;46.71;101868.41;4976282;28;45393;-78
2021/06/10 05:58:47;;;;;;;;;4.00;3.00;;;;;22.74;45.93;101866.22;4974428;28;45590;-78
2021/06/10 06:01:12;;;;;;;;;3.25;3.25;;;;;22.82;45.59;101866.50;4976860;28;46435;-78
2021/06/10 06:03:39;;;;;;;;;3.00;3.00;;;;;22.86;45.60;101860.78;4975967;28;45530;-77
2021/06/10 06:06:05;;;;;;;;;3.00;3.00;;;;;22.96;45.19;101873.50;4974636;28;45730;-79
2021/06/10 06:08:31;;;;;;;;;4.00;4.00;;;;;23.02;44.70;101879.28;4976322;28;45617;-74
2021/06/10 06:10:57;;;;;;;;;2.00;2.00;;;;;23.05;44.50;101864.75;4976701;28;47003;-77
2021/06/10 06:13:32;;;;;;;;;4.25;3.75;;;;;23.11;44.80;101875.84;4981324;28;45457;-75
2021/06/10 06:16:02;;;;;;;;;3.25;2.00;;;;;23.17;44.24;101866.47;4988925;28;47775;-79
2021/06/10 06:18:27;;;;;;;;;4.00;4.00;;;;;23.35;44.11;101882.97;4982410;28;45540;-79
2021/06/10 06:20:53;;;;;;;;;4.50;3.25;;;;;23.45;44.19;101889.31;4976659;28;47850;-78
2021/06/10 06:23:18;;;;;;;;;3.50;3.50;;;;;23.62;44.46;101887.97;4981618;28;45755;-79
2021/06/10 06:25:43;;;;;;;;;4.25;3.00;;;;;23.75;43.73;101885.16;4977037;28;45380;-81
2021/06/10 06:28:09;;;;;;;;;5.00;4.00;;;;;23.76;43.85;101890.44;4976697;28;48363;-80
2021/06/10 06:30:34;;;;;;;;;4.50;4.00;;;;;23.74;43.22;101884.31;4972458;28;46986;-79
2021/06/10 06:32:59;;;;;;;;;3.50;3.50;;;;;23.81;43.05;101887.38;4972545;28;45567;-80
2021/06/10 06:35:25;;;;;;;;;5.00;4.50;;;;;23.85;43.30;101888.81;4974737;28;45778;-77
2021/06/10 06:37:50;;;;;;;;;3.75;3.00;;;;;23.89;43.48;101896.50;4974651;28;47365;-79
2021/06/10 06:40:17;;;;;;;;;3.00;3.00;;;;;23.88;43.57;101883.22;4973711;28;45523;-79
2021/06/10 06:42:42;;;;;;;;;5.00;4.00;;;;;23.85;42.78;101896.88;4974193;28;45664;-82
2021/06/10 06:45:08;;;;;;;;;4.00;3.00;;;;;23.78;43.19;101895.69;4973893;28;45526;-80
2021/06/10 06:47:33;;;;;;;;;3.25;3.25;;;;;23.80;42.87;101901.75;4973428;28;45669;-80
2021/06/10 06:49:59;;;;;;;;;3.75;3.75;;;;;23.79;43.05;101902.75;4978979;28;46545;-69
2021/06/10 06:52:24;;;;;;;;;5.75;4.00;;;;;23.78;43.63;101903.72;4978759;28;45462;-81
2021/06/10 06:54:50;;;;;;;;;5.25;4.00;;;;;23.79;43.33;101910.78;4979569;28;45690;-79
2021/06/10 06:57:15;;;;;;;;;2.50;2.50;;;;;23.73;43.18;101908.59;4976468;28;45345;-80
2021/06/10 06:59:41;;;;;;;;;4.25;4.25;;;;;23.66;43.08;101909.09;4976552;28;45688;-80
2021/06/10 07:02:06;;;;;;;;;2.50;2.50;;;;;23.59;43.02;101915.88;4974066;28;45429;-79
2021/06/10 07:04:32;;;;;;;;;4.00;4.00;;;;;23.51;43.65;101918.34;4974380;28;45522;-80
2021/06/10 07:06:57;;;;;;;;;3.25;3.25;;;;;23.46;44.04;101922.34;4975544;28;45478;-81
2021/06/10 07:09:23;;;;;;;;;2.75;2.75;;;;;23.44;43.56;101931.38;4975987;28;46445;-79
2021/06/10 07:11:48;;;;;;;;;4.00;4.00;;;;;23.38;43.79;101926.47;4977257;28;50160;-79
2021/06/10 07:14:13;;;;;;;;;2.50;2.50;;;;;23.39;44.03;101928.22;4975787;28;45880;-80
2021/06/10 07:16:41;;;;;;;;;3.00;2.00;;;;;23.39;44.01;101940.78;4975257;28;45489;-82
2021/06/10 07:19:06;;;;;;;;;3.25;3.00;;;;;23.41;44.61;101936.13;4975594;28;47023;-80
2021/06/10 07:21:45;;;;;;;;;5.50;5.00;;;;;23.49;43.58;101946.25;4976265;28;45465;-80
2021/06/10 07:24:11;;;;;;;;;3.75;3.00;;;;;23.58;44.00;101942.84;4975659;28;45469;-81
2021/06/10 07:26:36;;;;;;;;;4.00;2.50;;;;;23.72;43.76;101936.44;4976050;28;45455;-80
2021/06/10 07:29:02;;;;;;;;;3.00;2.75;;;;;23.89;44.20;101941.28;4974245;28;45952;-80
2021/06/10 07:31:27;;;;;;;;;4.25;2.00;;;;;24.11;43.89;101943.09;4976508;28;45363;-80
2021/06/10 07:33:53;;;;;;;;;3.00;2.25;;;;;24.23;42.63;101931.38;4974561;28;45249;-80
2021/06/10 07:36:18;;;;;;;;;3.00;3.00;;;;;24.31;41.56;101926.22;4974470;28;45487;-80
2021/06/10 07:38:44;;;;;;;;;3.25;2.50;;;;;24.52;41.40;101939.75;4974025;28;45542;-80
2021/06/10 07:41:09;;;;;;;;;4.00;3.00;;;;;24.94;41.31;101937.13;4972759;28;46091;-80
2021/06/10 07:43:34;;;;;;;;;4.75;3.25;;;;;25.72;41.64;101933.06;4975950;28;45413;-81
2021/06/10 07:46:01;;;;;;;;;3.00;3.00;;;;;26.66;39.72;101926.38;4974063;28;45637;-80
2021/06/10 07:48:29;;;;;;;;;3.00;3.00;;;;;27.13;39.23;101925.66;4973729;28;45489;-80
2021/06/10 07:50:54;;;;;;;;;3.00;3.00;;;;;27.49;38.06;101938.34;4974016;28;45458;-80
2021/06/10 07:53:20;;;;;;;;;3.25;3.25;;;;;28.15;38.22;101940.09;4974539;28;45320;-80
2021/06/10 07:55:46;;;;;;;;;2.50;2.00;;;;;29.04;36.23;101933.91;4975925;28;45321;-80
2021/06/10 07:58:11;;;;;;;;;5.25;2.25;;;;;29.38;35.89;101942.91;4973271;28;46251;-80
2021/06/10 08:00:36;;;;;;;;;4.25;3.50;;;;;29.83;35.02;101932.84;4972002;28;45517;-80
2021/06/10 08:03:02;;;;;;;;;3.00;2.75;;;;;30.69;35.30;101938.00;4973356;28;48543;-79
2021/06/10 08:05:29;;;;;;;;;4.00;4.00;;;;;32.37;33.44;101932.53;4974286;28;45304;-79
2021/06/10 08:07:55;;;;;;;;;2.50;2.50;;;;;33.37;31.63;101929.63;4974528;28;46394;-79
2021/06/10 08:10:21;;;;;;;;;3.00;2.25;;;;;33.74;31.04;101927.88;4973588;28;45788;-79
2021/06/10 08:12:46;;;;;;;;;3.25;3.25;;;;;35.09;29.73;101924.50;4974634;28;45913;-79
2021/06/10 08:15:12;;;;;;;;;4.00;3.25;;;;;35.49;28.74;101926.47;4974393;28;46918;-79
2021/06/10 08:17:38;;;;;;;;;1.25;1.25;;;;;36.94;28.47;101929.88;4972223;28;45523;-79
2021/06/10 08:20:04;;;;;;;;;2.00;1.50;;;;;37.65;27.21;101931.88;4973857;28;45492;-79
2021/06/10 08:22:30;;;;;;;;;3.25;2.50;;;;;37.60;26.17;101933.34;4975268;28;45500;-80
2021/06/10 08:24:55;;;;;;;;;3.00;2.00;;;;;37.45;26.22;101932.78;4973784;28;45564;-79
2021/06/10 08:27:21;;;;;;;;;2.00;2.00;;;;;37.92;25.68;101936.22;4973279;28;45367;-80
2021/06/10 08:29:46;;;;;;;;;2.00;2.00;;;;;39.79;25.22;101930.91;4972931;28;45347;-80
2021/06/10 08:32:11;;;;;;;;;1.25;1.25;;;;;41.57;24.12;101934.59;4973152;28;45493;-80
2021/06/10 08:34:37;;;;;;;;;2.00;2.00;;;;;43.14;22.96;101927.53;4974402;28;45526;-79
2021/06/10 08:37:02;;;;;;;;;1.00;1.00;;;;;44.73;20.90;101922.69;4973148;28;46701;-79
2021/06/10 08:39:28;;;;;;;;;2.50;2.50;;;;;46.31;20.71;101929.81;4973420;28;45468;-79
2021/06/10 08:41:55;;;;;;;;;5.25;2.50;;;;;47.03;19.28;101938.13;4973207;28;45440;-79
2021/06/10 08:44:22;;;;;;;;;7.00;4.50;;;;;47.99;19.06;101936.13;4974354;28;45448;-80
2021/06/10 08:46:49;;;;;;;;;2.50;2.50;;;;;48.91;17.91;101938.97;4974065;28;45605;-79
2021/06/10 08:49:15;;;;;;;;;1.75;1.75;;;;;50.23;17.65;101936.44;4972226;28;45392;-79
2021/06/10 08:51:40;;;;;;;;;2.25;2.00;;;;;51.32;16.43;101936.97;4973834;28;45352;-79
2021/06/10 08:54:06;;;;;;;;;1.75;1.75;;;;;52.31;15.35;101938.06;4972311;28;45509;-79
2021/06/10 08:56:32;;;;;;;;;1.75;1.75;;;;;53.15;14.72;101934.38;4972001;28;46229;-79
2021/06/10 08:58:58;;;;;;;;;1.50;1.50;;;;;53.82;13.96;101945.31;4973451;28;45715;-79
2021/06/10 09:01:24;;;;;;;;;4.00;3.00;;;;;54.64;14.33;101937.75;4973618;28;45440;-80
2021/06/10 09:03:49;;;;;;;;;2.25;2.25;;;;;55.14;13.48;101936.28;4972567;28;45628;-80
2021/06/10 09:06:17;;;;;;;;;3.00;2.50;;;;;55.35;12.52;101950.38;4972358;28;47081;-80
2021/06/10 09:08:45;;;;;;;;;3.50;3.50;;;;;55.62;12.33;101944.25;4973005;28;45593;-79
2021/06/10 09:11:22;;;;;;;;;2.50;2.50;;;;;56.18;12.10;101938.28;4973507;28;45550;-79
2021/06/10 09:13:51;;;;;;;;;2.75;2.75;;;;;56.85;11.92;101930.56;4974784;28;45312;-77
2021/06/10 09:16:22;;;;;;;;;2.25;2.25;;;;;56.99;11.31;101928.22;4973696;28;46118;-80
2021/06/10 09:18:52;;;;;;;;;3.00;3.00;;;;;56.79;11.64;101929.16;4979389;28;45490;-81
2021/06/10 09:21:45;;;;;;;;;5.25;3.00;;;;;56.10;11.45;101931.56;4976786;28;45451;-80
2021/06/10 09:24:19;;;;;;;;;4.25;2.00;;;;;55.52;12.06;101932.56;4976976;28;45532;-79
2021/06/10 09:26:47;;;;;;;;;5.25;3.75;;;;;54.82;11.97;101923.63;4976576;28;45578;-80
2021/06/10 09:29:13;;;;;;;;;5.00;3.00;;;;;53.96;12.75;101917.84;4976549;28;45315;-80
2021/06/10 09:31:39;;;;;;;;;4.25;4.25;;;;;52.88;12.62;101919.44;4976605;28;45384;-79
2021/06/10 09:34:10;;;;;;;;;4.00;3.50;;;;;51.79;13.22;101930.03;4975307;28;45591;-80
2021/06/10 09:37:01;;;;;;;;;3.00;3.00;;;;;50.75;13.37;101925.19;4976154;28;46790;-80
2021/06/10 09:39:28;;;;;;;;;3.00;3.00;;;;;50.24;13.87;101931.69;4975662;28;45543;-80
2021/06/10 09:42:03;;;;;;;;;5.75;4.00;;;;;49.82;13.85;101928.69;4975915;28;45596;-79
2021/06/10 09:44:39;;;;;;;;;4.00;4.00;;;;;49.49;14.75;101932.47;4976119;28;45613;-79
2021/06/10 09:47:05;;;;;;;;;3.00;3.00;;;;;49.07;14.96;101925.69;4976308;28;45501;-79
2021/06/10 09:49:30;;;;;;;;;5.00;3.00;;;;;48.58;14.88;101933.13;4977594;28;45399;-80
2021/06/10 09:51:56;;;;;;;;;6.00;4.00;;;;;48.34;15.26;101924.66;4975825;28;45717;-80
2021/06/10 09:54:51;;;;;;;;;4.50;3.00;;;;;48.15;15.51;101920.94;4976070;28;45463;-79
2021/06/10 09:57:17;;;;;;;;;5.00;5.00;;;;;47.91;15.17;101928.31;4975982;28;45524;-79
2021/06/10 09:59:56;;;;;;;;;4.00;3.25;;;;;47.56;15.70;101930.16;4977388;28;45613;-80
2021/06/10 10:02:25;;;;;;;;;3.75;3.00;;;;;47.21;15.79;101933.91;4959414;28;45782;-80
2021/06/10 10:05:03;;;;;;;;;5.75;4.25;;;;;46.62;15.96;101923.44;4977405;28;45401;-79
2021/06/10 10:07:31;;;;;;;;;3.50;3.00;;;;;45.61;16.11;101922.94;4975244;28;47101;-79
2021/06/10 10:09:58;;;;;;;;;5.00;4.00;;;;;44.37;17.45;101925.16;4990620;28;45785;-79
2021/06/10 10:12:33;;;;;;;;;3.25;3.25;;;;;43.31;18.12;101921.97;4976262;28;45565;-79
2021/06/10 10:15:00;;;;;;;;;3.75;3.75;;;;;42.41;18.56;101926.63;4975453;28;45412;-79
2021/06/10 10:17:28;;;;;;;;;4.75;4.50;;;;;41.80;19.41;101922.66;4975552;28;45410;-78
2021/06/10 10:19:56;;;;;;;;;4.00;3.25;;;;;41.34;19.35;101924.41;4977149;28;45721;-79
2021/06/10 10:22:22;;;;;;;;;4.50;3.50;;;;;40.93;19.89;101917.97;4976692;28;45458;-79
2021/06/10 10:24:47;;;;;;;;;4.00;4.00;;;;;40.49;19.94;101900.84;4975790;28;45440;-79
2021/06/10 10:27:13;;;;;;;;;5.25;5.25;;;;;39.92;20.50;101912.28;4975752;28;45722;-79
2021/06/10 10:29:42;;;;;;;;;3.50;3.25;;;;;39.49;21.57;101906.88;4974936;28;45646;-79
2021/06/10 10:32:10;;;;;;;;;4.00;4.00;;;;;39.05;21.36;101917.06;4975815;28;45655;-79
2021/06/10 10:34:38;;;;;;;;;4.00;3.00;;;;;38.59;22.11;101912.78;4977846;28;45492;-79
2021/06/10 10:37:24;;;;;;;;;5.00;4.00;;;;;38.22;21.58;101909.03;4974859;28;45406;-79
2021/06/10 10:39:55;;;;;;;;;4.25;4.25;;;;;37.96;21.71;101899.03;4975359;28;45594;-79
2021/06/10 10:42:31;;;;;;;;;3.00;2.00;;;;;37.70;22.50;101904.63;4975167;28;45585;-79
2021/06/10 10:45:20;;;;;;;;;5.00;4.25;;;;;37.40;23.29;101901.56;4975595;28;45240;-79
2021/06/10 10:48:03;;;;;;;;;5.75;5.00;;;;;37.11;22.71;101892.72;4975231;28;45439;-79
2021/06/10 10:50:44;;;;;;;;;5.25;4.00;;;;;36.81;22.88;101895.09;4961593;28;45344;-74
2021/06/10 10:53:26;;;;;;;;;4.75;4.75;;;;;36.84;23.25;101900.13;4975700;28;45455;-78
2021/06/10 10:56:09;;;;;;;;;5.00;4.25;;;;;36.97;23.45;101891.94;4973382;28;45379;-78
2021/06/10 10:58:35;;;;;;;;;4.50;4.50;;;;;36.96;23.78;101893.00;4975052;28;45760;-78
2021/06/10 11:01:10;;;;;;;;;4.50;4.50;;;;;36.80;23.43;101886.00;4975520;28;45932;-78
2021/06/10 11:03:43;;;;;;;;;7.00;7.00;;;;;36.61;23.66;101875.91;4975902;28;45412;-78
2021/06/10 11:06:21;;;;;;;;;6.50;5.75;;;;;36.27;23.44;101880.47;4975640;28;45593;-78
2021/06/10 11:09:13;;;;;;;;;6.50;6.50;;;;;36.14;23.57;101880.47;4975134;28;45472;-78
2021/06/10 11:11:58;;;;;;;;;5.75;4.50;;;;;36.04;24.44;101890.97;4972431;28;45657;-79
2021/06/10 11:14:38;;;;;;;;;6.25;6.25;;;;;35.96;24.42;101877.47;4961889;28;45559;-79
2021/06/10 11:17:20;;;;;;;;;9.75;8.00;;;;;35.90;25.26;101881.84;4974824;28;45234;-77
2021/06/10 11:19:53;;;;;;;;;6.50;5.25;;;;;35.89;25.03;101871.94;4973065;28;46383;-79
2021/06/10 11:22:35;;;;;;;;;7.75;6.00;;;;;35.74;25.01;101874.84;4976473;28;45686;-79